Time;durP1;ratioP1;P1;durP2;ratioP2;P2;SDS_P1;SDS_P2;PMS_P1;PMS_P2;Temp;Humidity;BMP_temperature;BMP_pressure;BME280_temperature;BME280_humidity;BME280_pressure;Samples;Min_cycle;Max_cycle;Signal;HPM_P1;HPM_P2
2022/01/27 00:00:36;;;;;;;49.00;40.67;;;;;;;;;;5112778;27;20607;-85
2022/01/27 00:05:54;;;;;;;89.82;50.88;;;;;;;;;;5112548;27;20670;-83
2022/01/27 00:08:27;;;;;;;45.30;38.95;;;;;;;;;;5111633;28;20198;-83
2022/01/27 00:10:58;;;;;;;59.63;45.35;;;;;;;;;;5113160;28;20197;-83
2022/01/27 00:13:30;;;;;;;41.97;37.60;;;;;;;;;;5112676;28;20194;-83
2022/01/27 00:16:12;;;;;;;66.00;42.75;;;;;;;;;;5111063;28;20290;-82
2022/01/27 00:18:40;;;;;;;40.63;36.58;;;;;;;;;;5110810;28;20240;-83
2022/01/27 00:21:08;;;;;;;67.32;46.80;;;;;;;;;;5111842;28;20209;-83
2022/01/27 00:23:36;;;;;;;47.42;41.40;;;;;;;;;;5111584;28;20189;-83
2022/01/27 00:26:04;;;;;;;46.30;37.05;;;;;;;;;;5111406;28;20655;-82
2022/01/27 00:28:31;;;;;;;43.00;37.95;;;;;;;;;;5111323;28;20189;-83
2022/01/27 00:31:00;;;;;;;71.07;49.85;;;;;;;;;;5111155;28;20222;-82
2022/01/27 00:33:28;;;;;;;43.75;39.25;;;;;;;;;;5111039;28;20227;-82
2022/01/27 00:35:55;;;;;;;73.65;48.03;;;;;;;;;;5110328;28;20196;-84
2022/01/27 00:38:22;;;;;;;50.47;41.42;;;;;;;;;;5110712;28;20215;-83
2022/01/27 00:40:50;;;;;;;50.28;41.13;;;;;;;;;;5109208;28;20195;-82
2022/01/27 00:43:18;;;;;;;45.22;38.83;;;;;;;;;;5110386;28;20202;-83
2022/01/27 00:45:46;;;;;;;60.53;45.28;;;;;;;;;;5109611;28;20187;-83
2022/01/27 00:48:17;;;;;;;75.68;50.40;;;;;;;;;;5109186;28;20204;-83
2022/01/27 00:50:47;;;;;;;40.33;36.40;;;;;;;;;;5110205;27;20225;-83
2022/01/27 00:56:01;;;;;;;68.30;50.92;;;;;;;;;;5110121;28;20261;-82
2022/01/27 00:58:43;;;;;;;62.83;45.97;;;;;;;;;;5109329;28;20288;-83
2022/01/27 01:01:13;;;;;;;38.00;34.20;;;;;;;;;;5110117;28;20228;-83
2022/01/27 01:03:46;;;;;;;66.13;45.92;;;;;;;;;;5109829;28;20639;-83
2022/01/27 01:14:45;;;;;;;49.20;37.13;;;;;;;;;;5096892;28;20200;-83
2022/01/27 01:20:09;;;;;;;56.97;42.60;;;;;;;;;;5062511;28;20227;-82
2022/01/27 01:31:09;;;;;;;42.97;32.75;;;;;;;;;;5096333;28;20698;-83
2022/01/27 01:33:39;;;;;;;48.78;37.30;;;;;;;;;;5096081;28;20183;-82
2022/01/27 01:36:15;;;;;;;37.72;32.90;;;;;;;;;;5096230;28;20637;-82
2022/01/27 01:38:43;;;;;;;43.60;34.50;;;;;;;;;;5096228;28;20237;-83
2022/01/27 01:41:11;;;;;;;49.08;37.00;;;;;;;;;;5096336;28;20191;-83
2022/01/27 01:43:38;;;;;;;37.53;32.13;;;;;;;;;;5095346;28;20196;-82
2022/01/27 01:46:06;;;;;;;37.35;31.52;;;;;;;;;;5095950;28;20241;-83
2022/01/27 01:48:33;;;;;;;69.65;41.88;;;;;;;;;;5095054;28;20241;-82
2022/01/27 01:51:02;;;;;;;42.80;34.65;;;;;;;;;;5096320;28;20203;-82
2022/01/27 01:53:31;;;;;;;45.65;34.78;;;;;;;;;;5095898;28;20641;-83
2022/01/27 01:55:59;;;;;;;44.78;37.13;;;;;;;;;;5095575;28;20191;-82
2022/01/27 01:58:27;;;;;;;55.38;40.85;;;;;;;;;;5095720;28;20259;-83
2022/01/27 02:00:54;;;;;;;50.00;36.67;;;;;;;;;;5101202;28;20184;-81
2022/01/27 02:03:22;;;;;;;52.45;37.53;;;;;;;;;;5100748;28;20251;-81
2022/01/27 02:05:54;;;;;;;62.22;45.03;;;;;;;;;;5103759;28;20206;-82
2022/01/27 02:08:40;;;;;;;51.58;32.70;;;;;;;;;;5105519;28;20198;-83
2022/01/27 02:19:32;;;;;;;69.90;45.08;;;;;;;;;;5100341;28;20209;-83
2022/01/27 02:22:02;;;;;;;78.93;49.80;;;;;;;;;;5100491;28;20223;-83
2022/01/27 02:24:30;;;;;;;38.30;32.75;;;;;;;;;;5100573;28;20191;-82
2022/01/27 02:26:58;;;;;;;66.10;42.30;;;;;;;;;;5100394;28;20220;-81
2022/01/27 02:29:26;;;;;;;65.03;46.53;;;;;;;;;;5100709;28;20211;-82
2022/01/27 02:31:54;;;;;;;51.33;37.80;;;;;;;;;;5100836;28;20191;-82
2022/01/27 02:34:22;;;;;;;52.72;40.08;;;;;;;;;;5101844;28;20226;-83
2022/01/27 02:36:49;;;;;;;60.33;41.67;;;;;;;;;;5095429;28;20629;-83
2022/01/27 02:39:18;;;;;;;42.50;33.90;;;;;;;;;;5094611;28;20230;-82
2022/01/27 02:41:47;;;;;;;55.03;44.00;;;;;;;;;;5096748;28;20192;-82
2022/01/27 02:44:22;;;;;;;44.97;34.80;;;;;;;;;;5106957;28;20202;-83
2022/01/27 02:46:51;;;;;;;33.90;30.05;;;;;;;;;;5103376;28;20206;-82
2022/01/27 02:49:19;;;;;;;44.85;34.88;;;;;;;;;;5094790;28;20201;-81
2022/01/27 02:51:46;;;;;;;40.13;35.40;;;;;;;;;;5094966;28;20192;-83
2022/01/27 02:54:14;;;;;;;43.55;36.05;;;;;;;;;;5095096;28;20187;-83
2022/01/27 02:56:46;;;;;;;47.47;34.22;;;;;;;;;;5094283;28;20191;-83
2022/01/27 02:59:14;;;;;;;32.95;29.38;;;;;;;;;;5094645;28;20265;-83
2022/01/27 03:01:41;;;;;;;36.58;32.88;;;;;;;;;;5095342;28;20190;-82
2022/01/27 03:04:08;;;;;;;34.58;30.98;;;;;;;;;;5095301;28;20232;-81
2022/01/27 03:06:36;;;;;;;34.05;30.33;;;;;;;;;;5095385;28;20203;-82
2022/01/27 03:09:03;;;;;;;41.40;31.77;;;;;;;;;;5094644;28;20204;-83
2022/01/27 03:11:36;;;;;;;46.90;36.40;;;;;;;;;;5094790;28;20187;-82
2022/01/27 03:14:05;;;;;;;42.40;33.60;;;;;;;;;;5094444;28;20188;-82
2022/01/27 03:16:32;;;;;;;60.72;44.97;;;;;;;;;;5094691;28;20534;-82
2022/01/27 03:18:59;;;;;;;53.42;41.15;;;;;;;;;;5094545;28;20264;-82
2022/01/27 03:21:27;;;;;;;61.75;46.85;;;;;;;;;;5094084;28;20188;-83
2022/01/27 03:23:54;;;;;;;63.03;44.65;;;;;;;;;;5094085;28;20191;-82
2022/01/27 03:26:22;;;;;;;59.67;42.60;;;;;;;;;;5094225;28;20190;-82
2022/01/27 03:28:50;;;;;;;55.65;42.25;;;;;;;;;;5094428;28;20315;-82
2022/01/27 03:31:18;;;;;;;49.25;38.78;;;;;;;;;;5095290;28;20927;-83
2022/01/27 03:33:46;;;;;;;34.20;30.13;;;;;;;;;;5093586;28;20257;-81
2022/01/27 03:36:14;;;;;;;46.30;36.85;;;;;;;;;;5095955;28;20198;-82
2022/01/27 03:38:42;;;;;;;34.60;30.80;;;;;;;;;;5094429;28;20195;-84
2022/01/27 03:41:10;;;;;;;39.65;29.83;;;;;;;;;;5095797;28;20216;-83
2022/01/27 03:43:39;;;;;;;48.80;38.42;;;;;;;;;;5093100;28;20273;-82
2022/01/27 03:46:07;;;;;;;58.47;42.63;;;;;;;;;;5094978;28;20253;-83
2022/01/27 03:48:37;;;;;;;43.08;35.97;;;;;;;;;;5093875;28;20204;-83
2022/01/27 03:51:04;;;;;;;41.30;34.50;;;;;;;;;;5093846;28;20220;-83
2022/01/27 03:53:31;;;;;;;34.17;30.48;;;;;;;;;;5094566;28;20188;-83
2022/01/27 03:55:59;;;;;;;37.95;31.70;;;;;;;;;;5093542;28;20191;-83
2022/01/27 03:58:26;;;;;;;43.92;34.10;;;;;;;;;;5093678;28;20314;-83
2022/01/27 04:00:54;;;;;;;38.15;32.15;;;;;;;;;;5093563;28;20221;-83
2022/01/27 04:03:22;;;;;;;49.67;37.92;;;;;;;;;;5093636;28;20187;-83
2022/01/27 04:05:53;;;;;;;59.65;41.28;;;;;;;;;;5093682;28;20196;-82
2022/01/27 04:08:21;;;;;;;53.20;38.80;;;;;;;;;;5092506;28;20664;-83
2022/01/27 04:10:48;;;;;;;40.92;33.53;;;;;;;;;;5093709;28;20212;-82
2022/01/27 04:13:16;;;;;;;37.47;30.90;;;;;;;;;;5093358;28;20194;-82
2022/01/27 04:15:44;;;;;;;35.28;30.73;;;;;;;;;;5093627;28;20633;-82
2022/01/27 04:18:11;;;;;;;47.00;35.67;;;;;;;;;;5093968;28;20277;-82
2022/01/27 04:20:39;;;;;;;36.85;32.97;;;;;;;;;;5095052;28;20226;-82
2022/01/27 04:23:08;;;;;;;47.38;38.05;;;;;;;;;;5100736;28;20200;-83
2022/01/27 04:25:37;;;;;;;42.72;36.20;;;;;;;;;;5095469;28;20211;-83
2022/01/27 04:28:08;;;;;;;35.22;31.25;;;;;;;;;;5095803;28;20582;-83
2022/01/27 04:30:35;;;;;;;39.67;31.27;;;;;;;;;;5093440;28;20671;-83
2022/01/27 04:33:04;;;;;;;43.53;32.78;;;;;;;;;;5093562;28;20197;-83
2022/01/27 04:35:35;;;;;;;36.88;30.85;;;;;;;;;;5093605;28;20599;-83
2022/01/27 04:38:16;;;;;;;44.80;36.92;;;;;;;;;;5093701;28;20192;-83
2022/01/27 04:40:52;;;;;;;46.10;33.10;;;;;;;;;;5093352;28;20234;-83
2022/01/27 04:43:26;;;;;;;27.85;25.27;;;;;;;;;;5093334;28;20233;-83
2022/01/27 04:46:02;;;;;;;34.15;30.42;;;;;;;;;;5095510;28;20206;-83
2022/01/27 04:48:35;;;;;;;37.95;32.67;;;;;;;;;;5097313;28;20193;-82
2022/01/27 04:51:06;;;;;;;37.40;32.22;;;;;;;;;;5097373;28;20207;-83
2022/01/27 04:53:37;;;;;;;39.85;31.77;;;;;;;;;;5097551;28;20199;-83
2022/01/27 04:56:10;;;;;;;43.38;34.67;;;;;;;;;;5096917;28;20227;-83
2022/01/27 04:58:38;;;;;;;40.15;34.58;;;;;;;;;;5097010;28;20229;-83
2022/01/27 05:01:05;;;;;;;41.00;33.55;;;;;;;;;;5096779;28;20571;-83
2022/01/27 05:03:41;;;;;;;35.25;30.27;;;;;;;;;;5096717;28;20195;-83
2022/01/27 05:06:09;;;;;;;32.22;28.83;;;;;;;;;;5096956;28;20637;-83
2022/01/27 05:08:36;;;;;;;27.80;24.83;;;;;;;;;;5096926;28;20199;-83
2022/01/27 05:11:09;;;;;;;35.55;29.92;;;;;;;;;;5096864;28;20188;-83
2022/01/27 05:13:42;;;;;;;47.28;37.97;;;;;;;;;;5097151;28;20538;-83
2022/01/27 05:16:09;;;;;;;31.25;27.85;;;;;;;;;;5096930;28;20192;-83
2022/01/27 05:18:37;;;;;;;33.28;29.80;;;;;;;;;;5096097;28;20220;-83
2022/01/27 05:21:04;;;;;;;45.33;36.42;;;;;;;;;;5097980;28;20211;-82
2022/01/27 05:23:32;;;;;;;57.42;36.13;;;;;;;;;;5106652;28;20233;-83
2022/01/27 05:25:59;;;;;;;49.72;34.47;;;;;;;;;;5102997;28;20187;-83
2022/01/27 05:28:26;;;;;;;44.97;36.70;;;;;;;;;;5097020;28;20207;-83
2022/01/27 05:30:56;;;;;;;38.78;34.45;;;;;;;;;;5096679;28;20188;-83
2022/01/27 05:33:23;;;;;;;39.50;33.95;;;;;;;;;;5097017;28;20525;-83
2022/01/27 05:35:50;;;;;;;43.28;37.05;;;;;;;;;;5096608;28;20191;-83
2022/01/27 05:38:18;;;;;;;41.03;35.47;;;;;;;;;;5097113;28;20203;-83
2022/01/27 05:40:46;;;;;;;43.70;34.85;;;;;;;;;;5097604;28;20683;-83
2022/01/27 05:43:13;;;;;;;47.03;37.05;;;;;;;;;;5097416;28;20207;-83
2022/01/27 05:45:43;;;;;;;35.08;31.52;;;;;;;;;;5097911;28;20189;-83
2022/01/27 05:48:12;;;;;;;45.22;38.92;;;;;;;;;;5104241;28;20199;-82
2022/01/27 05:50:39;;;;;;;38.10;33.35;;;;;;;;;;5103352;28;20206;-83
2022/01/27 05:53:07;;;;;;;37.47;31.65;;;;;;;;;;5097772;28;20187;-83
2022/01/27 05:55:35;;;;;;;34.15;29.73;;;;;;;;;;5101647;28;20196;-82
2022/01/27 05:58:02;;;;;;;43.35;36.33;;;;;;;;;;5101883;28;20593;-82
2022/01/27 06:00:30;;;;;;;27.98;25.15;;;;;;;;;;5101413;28;20241;-83
2022/01/27 06:02:57;;;;;;;33.47;27.85;;;;;;;;;;5102200;28;20525;-82
2022/01/27 06:05:27;;;;;;;43.70;35.70;;;;;;;;;;5096608;28;20207;-83
2022/01/27 06:07:54;;;;;;;39.38;35.03;;;;;;;;;;5096665;28;20212;-83
2022/01/27 06:10:22;;;;;;;41.58;33.20;;;;;;;;;;5096050;28;20206;-83
2022/01/27 06:12:51;;;;;;;42.72;35.90;;;;;;;;;;5095906;28;20199;-83
2022/01/27 06:15:18;;;;;;;37.05;33.22;;;;;;;;;;5096605;28;20238;-83
2022/01/27 06:17:48;;;;;;;50.13;40.00;;;;;;;;;;5095867;28;20630;-84
2022/01/27 06:20:16;;;;;;;39.30;33.25;;;;;;;;;;5096138;28;20212;-83
2022/01/27 06:22:45;;;;;;;50.85;37.70;;;;;;;;;;5095065;28;20183;-84
2022/01/27 06:25:13;;;;;;;46.95;36.03;;;;;;;;;;5094997;28;20229;-84
2022/01/27 06:27:41;;;;;;;50.50;37.35;;;;;;;;;;5096100;28;20205;-83
2022/01/27 06:30:12;;;;;;;41.15;32.03;;;;;;;;;;5095184;28;20215;-84
2022/01/27 06:32:39;;;;;;;50.63;39.63;;;;;;;;;;5096778;28;20218;-84
2022/01/27 06:35:07;;;;;;;45.42;36.85;;;;;;;;;;5095005;28;20253;-84
2022/01/27 06:37:35;;;;;;;44.58;36.65;;;;;;;;;;5094798;28;20188;-83
2022/01/27 06:40:05;;;;;;;48.78;40.08;;;;;;;;;;5093252;28;20758;-84
2022/01/27 06:42:32;;;;;;;48.63;41.28;;;;;;;;;;5094041;28;20190;-84
2022/01/27 06:45:00;;;;;;;40.00;33.38;;;;;;;;;;5094333;28;20202;-84
2022/01/27 06:47:27;;;;;;;42.92;37.30;;;;;;;;;;5094771;28;20226;-84
2022/01/27 06:49:54;;;;;;;32.33;29.15;;;;;;;;;;5094662;28;20204;-85
2022/01/27 06:52:24;;;;;;;48.17;39.35;;;;;;;;;;5094631;28;20198;-84
2022/01/27 06:54:52;;;;;;;47.33;37.25;;;;;;;;;;5094621;28;20239;-84
2022/01/27 06:57:21;;;;;;;32.25;29.20;;;;;;;;;;5094646;28;20205;-85
2022/01/27 06:59:48;;;;;;;50.15;35.50;;;;;;;;;;5094581;28;20240;-85
2022/01/27 07:02:16;;;;;;;36.08;30.50;;;;;;;;;;5094225;28;20195;-85
2022/01/27 07:04:43;;;;;;;44.17;35.83;;;;;;;;;;5094249;28;20598;-83
2022/01/27 07:07:10;;;;;;;36.10;30.73;;;;;;;;;;5094344;28;20200;-84
2022/01/27 07:09:38;;;;;;;36.53;32.72;;;;;;;;;;5093883;28;20219;-84
2022/01/27 07:12:05;;;;;;;48.80;35.40;;;;;;;;;;5094320;28;20202;-85
2022/01/27 07:14:34;;;;;;;49.22;34.95;;;;;;;;;;5094637;28;20249;-85
2022/01/27 07:17:03;;;;;;;42.03;31.80;;;;;;;;;;5095439;28;20194;-84
2022/01/27 07:19:31;;;;;;;59.42;41.55;;;;;;;;;;5096547;28;20224;-86
2022/01/27 07:21:58;;;;;;;37.38;33.40;;;;;;;;;;5106961;28;20219;-86
2022/01/27 07:24:26;;;;;;;64.03;43.13;;;;;;;;;;5098823;28;20249;-87
2022/01/27 07:26:53;;;;;;;56.35;42.95;;;;;;;;;;5094834;28;20211;-85
2022/01/27 07:29:20;;;;;;;49.00;38.17;;;;;;;;;;5094519;28;20192;-89
2022/01/27 07:31:49;;;;;;;57.15;43.92;;;;;;;;;;5094858;28;20628;-87
2022/01/27 07:34:16;;;;;;;39.50;35.15;;;;;;;;;;5095668;28;20199;-88
2022/01/27 07:36:44;;;;;;;64.43;42.88;;;;;;;;;;5094464;28;20249;-88
2022/01/27 07:39:14;;;;;;;42.38;37.60;;;;;;;;;;5093177;28;20211;-87
2022/01/27 07:41:44;;;;;;;73.43;47.83;;;;;;;;;;5094348;28;20256;-88
2022/01/27 07:44:11;;;;;;;59.60;42.05;;;;;;;;;;5094849;28;20581;-87
2022/01/27 07:46:39;;;;;;;53.72;36.53;;;;;;;;;;5094370;28;20186;-88
2022/01/27 07:49:08;;;;;;;62.22;45.78;;;;;;;;;;5094533;28;20196;-89
2022/01/27 07:51:35;;;;;;;40.47;35.80;;;;;;;;;;5094316;28;20187;-89
2022/01/27 07:54:02;;;;;;;57.00;42.08;;;;;;;;;;5094148;28;20206;-88
2022/01/27 07:56:30;;;;;;;59.08;41.13;;;;;;;;;;5094280;28;20602;-88
2022/01/27 07:58:57;;;;;;;64.85;48.10;;;;;;;;;;5093991;28;20239;-88
2022/01/27 08:01:24;;;;;;;41.67;36.28;;;;;;;;;;5093922;28;20227;-88
2022/01/27 08:03:52;;;;;;;52.92;41.08;;;;;;;;;;5093675;28;20207;-88
2022/01/27 08:06:21;;;;;;;47.35;42.38;;;;;;;;;;5094297;28;20633;-87
2022/01/27 08:08:49;;;;;;;66.00;52.17;;;;;;;;;;5093139;28;20600;-88
2022/01/27 08:11:16;;;;;;;52.88;45.95;;;;;;;;;;5094350;28;20194;-87
2022/01/27 08:13:43;;;;;;;62.95;50.05;;;;;;;;;;5094731;28;20200;-87
2022/01/27 08:16:11;;;;;;;54.40;42.00;;;;;;;;;;5093952;28;20206;-87
2022/01/27 08:18:38;;;;;;;46.33;39.03;;;;;;;;;;5094059;28;20210;-88
2022/01/27 08:21:06;;;;;;;40.45;36.40;;;;;;;;;;5095938;28;20226;-88
2022/01/27 08:23:34;;;;;;;41.50;37.40;;;;;;;;;;5097999;28;20201;-86
2022/01/27 08:26:06;;;;;;;60.42;46.72;;;;;;;;;;5097917;28;20214;-85
2022/01/27 08:28:38;;;;;;;46.40;39.13;;;;;;;;;;5097769;28;20629;-86
2022/01/27 08:31:05;;;;;;;43.15;37.25;;;;;;;;;;5097736;28;20638;-86
2022/01/27 08:33:34;;;;;;;40.92;36.35;;;;;;;;;;5097559;28;20679;-86
2022/01/27 08:36:01;;;;;;;64.25;50.65;;;;;;;;;;5098849;28;20656;-86
2022/01/27 08:38:29;;;;;;;50.85;43.53;;;;;;;;;;5097772;28;20288;-86
2022/01/27 08:40:59;;;;;;;57.88;45.22;;;;;;;;;;5097310;28;20317;-87
2022/01/27 08:43:26;;;;;;;72.40;50.65;;;;;;;;;;5097268;28;20207;-86
2022/01/27 08:45:53;;;;;;;48.88;43.63;;;;;;;;;;5097250;28;20208;-86
2022/01/27 08:48:21;;;;;;;47.75;39.10;;;;;;;;;;5097176;28;20199;-86
2022/01/27 08:50:58;;;;;;;63.90;46.22;;;;;;;;;;5097469;28;20645;-84
2022/01/27 08:53:26;;;;;;;48.25;40.92;;;;;;;;;;5097353;28;20541;-86
2022/01/27 08:55:54;;;;;;;53.92;47.13;;;;;;;;;;5097018;28;20199;-86
2022/01/27 08:58:25;;;;;;;66.43;48.88;;;;;;;;;;5096844;28;20277;-87
2022/01/27 09:00:52;;;;;;;73.00;52.95;;;;;;;;;;5098331;28;20212;-87
2022/01/27 09:03:20;;;;;;;69.53;53.65;;;;;;;;;;5098363;28;20207;-87
2022/01/27 09:05:48;;;;;;;54.35;48.33;;;;;;;;;;5097761;28;20217;-87
2022/01/27 09:08:15;;;;;;;41.80;38.10;;;;;;;;;;5097293;28;20195;-86
2022/01/27 09:10:45;;;;;;;75.78;55.40;;;;;;;;;;5097178;28;20191;-86
2022/01/27 09:13:14;;;;;;;62.30;50.40;;;;;;;;;;5097059;28;20237;-86
2022/01/27 09:15:44;;;;;;;76.38;51.70;;;;;;;;;;5096574;28;20268;-86
2022/01/27 09:18:11;;;;;;;68.28;52.15;;;;;;;;;;5096777;28;20237;-86
2022/01/27 09:20:39;;;;;;;46.15;41.28;;;;;;;;;;5097015;28;20203;-86
2022/01/27 09:23:12;;;;;;;60.00;52.28;;;;;;;;;;5096759;28;20187;-88
2022/01/27 09:25:43;;;;;;;51.17;44.03;;;;;;;;;;5097119;28;20311;-88
2022/01/27 09:28:10;;;;;;;44.30;40.53;;;;;;;;;;5096923;28;20275;-88
2022/01/27 09:30:38;;;;;;;50.08;44.78;;;;;;;;;;5096369;28;20230;-88
2022/01/27 09:33:07;;;;;;;56.25;50.38;;;;;;;;;;5096830;28;20191;-87
2022/01/27 09:35:34;;;;;;;59.55;52.45;;;;;;;;;;5096970;28;20184;-88
2022/01/27 09:38:02;;;;;;;45.58;41.85;;;;;;;;;;5096644;28;20201;-88
2022/01/27 09:40:30;;;;;;;49.03;45.05;;;;;;;;;;5096485;28;20237;-88
2022/01/27 09:42:57;;;;;;;52.05;47.03;;;;;;;;;;5096753;28;20221;-87
2022/01/27 09:45:25;;;;;;;56.35;50.75;;;;;;;;;;5096861;28;20192;-88
2022/01/27 09:47:59;;;;;;;54.42;48.90;;;;;;;;;;5096667;28;20204;-86
2022/01/27 09:50:36;;;;;;;60.65;54.13;;;;;;;;;;5095482;28;20287;-87
2022/01/27 09:53:04;;;;;;;57.70;51.33;;;;;;;;;;5096617;28;20192;-86
2022/01/27 09:55:32;;;;;;;65.57;55.17;;;;;;;;;;5096413;28;20300;-90
2022/01/27 09:58:01;;;;;;;54.75;49.25;;;;;;;;;;5097093;28;20192;-89
2022/01/27 10:00:29;;;;;;;62.13;54.50;;;;;;;;;;5096296;28;20203;-91
2022/01/27 10:03:03;;;;;;;57.58;51.55;;;;;;;;;;5096301;28;20678;-90
2022/01/27 10:05:31;;;;;;;52.10;47.13;;;;;;;;;;5096842;27;20203;-89
2022/01/27 10:08:03;;;;;;;57.45;51.13;;;;;;;;;;5095964;28;20691;-90
2022/01/27 10:10:35;;;;;;;50.60;45.95;;;;;;;;;;5096199;28;20605;-90
2022/01/27 10:13:05;;;;;;;57.88;52.38;;;;;;;;;;5095492;28;20264;-87
2022/01/27 10:15:37;;;;;;;54.53;49.28;;;;;;;;;;5096679;28;20221;-88
2022/01/27 10:18:05;;;;;;;54.55;49.40;;;;;;;;;;5103204;28;20199;-87
2022/01/27 10:20:34;;;;;;;54.63;49.47;;;;;;;;;;5096805;28;20197;-87
2022/01/27 10:23:21;;;;;;;47.70;42.10;;;;;;;;;;5096505;28;20233;-87
2022/01/27 10:25:51;;;;;;;53.13;47.53;;;;;;;;;;5094819;28;20204;-85
2022/01/27 10:28:31;;;;;;;48.45;43.55;;;;;;;;;;5096332;28;20201;-87
2022/01/27 10:31:05;;;;;;;60.40;54.17;;;;;;;;;;5095871;28;20223;-82
2022/01/27 10:33:46;;;;;;;54.05;48.40;;;;;;;;;;5099502;28;20199;-83
2022/01/27 10:36:20;;;;;;;58.13;52.33;;;;;;;;;;5098779;28;20191;-86
2022/01/27 10:38:48;;;;;;;55.08;50.60;;;;;;;;;;5095191;28;20692;-81
2022/01/27 10:41:15;;;;;;;45.88;42.47;;;;;;;;;;5094718;28;20189;-81
2022/01/27 10:43:42;;;;;;;58.22;52.20;;;;;;;;;;5094990;28;20199;-85
2022/01/27 10:46:14;;;;;;;49.17;45.10;;;;;;;;;;5095205;28;20195;-85
2022/01/27 10:48:45;;;;;;;53.20;48.05;;;;;;;;;;5096002;28;20204;-86
2022/01/27 10:51:18;;;;;;;54.45;49.25;;;;;;;;;;5095084;28;20218;-86
2022/01/27 10:53:51;;;;;;;47.95;44.00;;;;;;;;;;5095853;28;20641;-87
2022/01/27 10:56:20;;;;;;;54.80;49.22;;;;;;;;;;5096016;28;20223;-91
2022/01/27 10:58:47;;;;;;;48.92;44.65;;;;;;;;;;5096546;28;20228;-91
2022/01/27 11:01:22;;;;;;;48.30;43.97;;;;;;;;;;5095339;28;20192;-87
2022/01/27 11:03:51;;;;;;;64.90;59.20;;;;;;;;;;5095344;28;20646;-87
2022/01/27 11:06:20;;;;;;;45.92;42.70;;;;;;;;;;5095805;28;20251;-88
2022/01/27 11:08:49;;;;;;;64.75;59.78;;;;;;;;;;5095022;28;20212;-86
2022/01/27 11:11:17;;;;;;;64.18;58.92;;;;;;;;;;5094619;28;20200;-86
2022/01/27 11:13:46;;;;;;;64.82;59.85;;;;;;;;;;5096883;28;20635;-86
2022/01/27 11:16:16;;;;;;;61.05;56.50;;;;;;;;;;5094891;28;20205;-86
2022/01/27 11:18:46;;;;;;;58.55;53.47;;;;;;;;;;5095405;28;20196;-86
2022/01/27 11:21:26;;;;;;;53.00;48.80;;;;;;;;;;5094971;28;20188;-88
2022/01/27 11:24:07;;;;;;;59.75;54.55;;;;;;;;;;5095058;28;20271;-88
2022/01/27 11:26:40;;;;;;;54.72;49.58;;;;;;;;;;5094811;28;20193;-85
2022/01/27 11:29:09;;;;;;;43.78;40.92;;;;;;;;;;5095934;28;20209;-86
2022/01/27 11:31:44;;;;;;;56.78;51.50;;;;;;;;;;5094639;28;20203;-86
2022/01/27 11:34:14;;;;;;;54.40;49.78;;;;;;;;;;5094406;28;20208;-86
2022/01/27 11:37:00;;;;;;;50.13;46.33;;;;;;;;;;5093637;28;20265;-83
2022/01/27 11:39:47;;;;;;;55.28;50.58;;;;;;;;;;5095994;28;20274;-84
2022/01/27 11:42:15;;;;;;;54.83;49.85;;;;;;;;;;5093973;28;20215;-82
2022/01/27 11:44:45;;;;;;;51.38;46.70;;;;;;;;;;5095193;28;20249;-88
2022/01/27 11:47:22;;;;;;;56.88;51.75;;;;;;;;;;5095399;28;20275;-89
2022/01/27 11:49:59;;;;;;;48.15;44.90;;;;;;;;;;5096849;28;20188;-87
2022/01/27 11:52:28;;;;;;;45.58;42.63;;;;;;;;;;5093926;28;20644;-87
2022/01/27 11:55:20;;;;;;;47.47;44.33;;;;;;;;;;5094500;28;20228;-88
2022/01/27 11:57:48;;;;;;;43.35;40.60;;;;;;;;;;5092957;28;20224;-88
2022/01/27 12:00:17;;;;;;;44.10;41.30;;;;;;;;;;5092979;28;20234;-88
2022/01/27 12:03:07;;;;;;;56.47;51.92;;;;;;;;;;5092803;28;20226;-87
2022/01/27 12:05:35;;;;;;;45.15;42.33;;;;;;;;;;5094506;28;20201;-87
2022/01/27 12:08:22;;;;;;;44.97;41.78;;;;;;;;;;5094216;28;20208;-87
2022/01/27 12:10:53;;;;;;;46.75;44.05;;;;;;;;;;5094248;28;20201;-88
2022/01/27 12:13:48;;;;;;;49.15;45.40;;;;;;;;;;5094584;28;20204;-89
2022/01/27 12:16:26;;;;;;;46.42;43.25;;;;;;;;;;5080530;28;20200;-88
2022/01/27 12:19:01;;;;;;;54.10;49.80;;;;;;;;;;5093624;28;20705;-88
2022/01/27 12:21:32;;;;;;;55.40;50.85;;;;;;;;;;5093937;28;20220;-86
2022/01/27 12:24:24;;;;;;;58.70;53.75;;;;;;;;;;5094284;28;20223;-88
2022/01/27 12:26:57;;;;;;;46.72;43.63;;;;;;;;;;5095106;28;20288;-87
2022/01/27 12:29:25;;;;;;;49.88;46.50;;;;;;;;;;5097257;28;20223;-88
2022/01/27 12:31:53;;;;;;;49.03;45.63;;;;;;;;;;5097177;28;20227;-86
2022/01/27 12:34:21;;;;;;;51.97;48.42;;;;;;;;;;5095706;28;20213;-87
2022/01/27 12:36:59;;;;;;;49.47;46.13;;;;;;;;;;5093400;28;20196;-88
2022/01/27 12:39:27;;;;;;;47.25;44.20;;;;;;;;;;5097294;28;20573;-88
2022/01/27 12:41:56;;;;;;;52.72;48.47;;;;;;;;;;5099392;28;20671;-82
2022/01/27 12:44:25;;;;;;;53.25;49.60;;;;;;;;;;5097217;28;20204;-86
2022/01/27 12:47:10;;;;;;;54.88;50.42;;;;;;;;;;5095737;28;20204;-89
2022/01/27 12:49:40;;;;;;;54.08;49.75;;;;;;;;;;5104190;28;20235;-89
2022/01/27 12:52:08;;;;;;;54.85;50.75;;;;;;;;;;5101481;28;20251;-89
2022/01/27 12:54:36;;;;;;;47.55;44.30;;;;;;;;;;5097186;28;20201;-90
2022/01/27 12:57:05;;;;;;;50.45;46.92;;;;;;;;;;5094852;28;20249;-91
2022/01/27 12:59:34;;;;;;;53.80;49.72;;;;;;;;;;5094529;28;20239;-90
2022/01/27 13:02:03;;;;;;;53.03;49.42;;;;;;;;;;5094359;28;20223;-91
2022/01/27 13:04:30;;;;;;;52.35;48.65;;;;;;;;;;5094232;28;20193;-89
2022/01/27 13:06:59;;;;;;;56.05;51.53;;;;;;;;;;5095684;28;20246;-88
2022/01/27 13:09:28;;;;;;;46.10;43.45;;;;;;;;;;5098195;28;20199;-87
2022/01/27 13:11:56;;;;;;;46.92;44.15;;;;;;;;;;5099707;28;20222;-85
2022/01/27 13:14:26;;;;;;;48.20;45.25;;;;;;;;;;5097383;28;20225;-88
2022/01/27 13:16:58;;;;;;;46.95;44.30;;;;;;;;;;5097204;28;20202;-87
2022/01/27 13:19:43;;;;;;;50.35;47.05;;;;;;;;;;5097514;28;20219;-87
2022/01/27 13:22:16;;;;;;;53.30;49.63;;;;;;;;;;5096637;28;20735;-87
2022/01/27 13:24:48;;;;;;;48.47;45.17;;;;;;;;;;5097729;28;20201;-87
2022/01/27 13:27:16;;;;;;;48.15;45.15;;;;;;;;;;5099112;28;20194;-87
2022/01/27 13:29:46;;;;;;;54.17;50.10;;;;;;;;;;5100158;28;20189;-87
2022/01/27 13:32:14;;;;;;;50.85;47.22;;;;;;;;;;5099758;28;20193;-88
2022/01/27 13:34:45;;;;;;;50.90;47.13;;;;;;;;;;5099221;28;20216;-87
2022/01/27 13:37:15;;;;;;;55.67;51.28;;;;;;;;;;5102906;28;20527;-87
2022/01/27 13:42:31;;;;;;;56.13;51.30;;;;;;;;;;5104946;28;20570;-87
2022/01/27 13:45:01;;;;;;;53.88;49.95;;;;;;;;;;5105991;28;20206;-88
2022/01/27 13:47:39;;;;;;;53.45;49.47;;;;;;;;;;5106423;28;20203;-86
2022/01/27 13:50:11;;;;;;;46.78;43.92;;;;;;;;;;5105320;28;20193;-88
2022/01/27 13:52:43;;;;;;;54.15;50.30;;;;;;;;;;5103786;27;20241;-86
2022/01/27 13:55:12;;;;;;;46.47;43.65;;;;;;;;;;5108967;28;20209;-87
2022/01/27 13:57:48;;;;;;;54.63;50.53;;;;;;;;;;5105339;28;20224;-86
2022/01/27 14:00:51;;;;;;;46.90;43.85;;;;;;;;;;5106501;28;20233;-85
2022/01/27 14:03:20;;;;;;;50.63;46.70;;;;;;;;;;5108410;28;20218;-88
2022/01/27 14:06:05;;;;;;;54.78;50.47;;;;;;;;;;5106914;28;20205;-87
2022/01/27 14:08:39;;;;;;;54.80;50.60;;;;;;;;;;5105436;28;20218;-87
2022/01/27 14:11:08;;;;;;;50.20;46.65;;;;;;;;;;5102787;28;20201;-87
2022/01/27 14:13:36;;;;;;;49.00;45.80;;;;;;;;;;5105363;28;20246;-85
2022/01/27 14:16:04;;;;;;;54.45;50.65;;;;;;;;;;5106145;28;20211;-87
2022/01/27 14:18:41;;;;;;;57.38;52.85;;;;;;;;;;5111953;28;20205;-85
2022/01/27 14:21:11;;;;;;;58.72;54.08;;;;;;;;;;5105865;28;20205;-84
2022/01/27 14:23:45;;;;;;;49.27;46.20;;;;;;;;;;5102393;28;20216;-85
2022/01/27 14:26:22;;;;;;;56.38;52.25;;;;;;;;;;5103839;28;20463;-86
2022/01/27 14:28:50;;;;;;;51.72;48.17;;;;;;;;;;5102997;28;20205;-85
2022/01/27 14:31:25;;;;;;;58.30;52.65;;;;;;;;;;5104193;28;20219;-84
2022/01/27 14:33:56;;;;;;;52.75;49.15;;;;;;;;;;5102855;28;20230;-84
2022/01/27 14:36:25;;;;;;;61.30;56.05;;;;;;;;;;5101654;28;20217;-83
2022/01/27 14:38:53;;;;;;;52.47;49.27;;;;;;;;;;5101823;28;20225;-83
2022/01/27 14:41:21;;;;;;;56.85;52.60;;;;;;;;;;5098505;28;20439;-84
2022/01/27 14:43:49;;;;;;;52.80;48.95;;;;;;;;;;5099869;28;20225;-83
2022/01/27 14:46:23;;;;;;;57.25;53.38;;;;;;;;;;5097012;28;20619;-83
2022/01/27 14:48:54;;;;;;;52.72;48.88;;;;;;;;;;5095435;28;20292;-83
2022/01/27 14:51:25;;;;;;;56.67;52.47;;;;;;;;;;5095154;28;20730;-84
2022/01/27 14:53:53;;;;;;;55.55;51.45;;;;;;;;;;5104618;27;20226;-85
2022/01/27 14:56:21;;;;;;;59.15;54.55;;;;;;;;;;5097403;28;20190;-85
2022/01/27 14:58:51;;;;;;;54.40;50.92;;;;;;;;;;5096310;28;20713;-85
2022/01/27 15:01:18;;;;;;;59.45;54.90;;;;;;;;;;5094728;28;20219;-85
2022/01/27 15:03:46;;;;;;;56.92;52.97;;;;;;;;;;5095988;28;20260;-85
2022/01/27 15:06:14;;;;;;;62.53;58.10;;;;;;;;;;5095598;28;20546;-85
2022/01/27 15:08:43;;;;;;;61.80;57.30;;;;;;;;;;5095800;28;20542;-84